Time;durP1;ratioP1;P1;durP2;ratioP2;P2;SDS_P1;SDS_P2;PMS_P1;PMS_P2;Temp;Humidity;BMP_temperature;BMP_pressure;BME280_temperature;BME280_humidity;BME280_pressure;Samples;Min_cycle;Max_cycle;Signal;HPM_P1;HPM_P2
2023/07/18 00:01:24;;;;;;;2.77;1.77;;;;;;;18.72;64.94;98641.38;5004688;28;20677;-79
2023/07/18 00:03:51;;;;;;;2.63;1.60;;;;;;;18.64;65.81;98639.13;5004385;28;20282;-79
2023/07/18 00:06:18;;;;;;;3.07;1.87;;;;;;;18.59;64.39;98647.19;5003914;28;20570;-80
2023/07/18 00:08:45;;;;;;;1.77;1.53;;;;;;;18.55;66.49;98651.44;5004729;28;20235;-80
2023/07/18 00:11:11;;;;;;;2.53;1.80;;;;;;;18.44;67.31;98651.59;5003476;28;20210;-80
2023/07/18 00:13:38;;;;;;;3.93;1.83;;;;;;;18.35;70.63;98650.44;5003724;28;20689;-80
2023/07/18 00:16:04;;;;;;;3.87;1.63;;;;;;;18.35;70.25;98658.50;5004701;28;20214;-80
2023/07/18 00:18:31;;;;;;;2.53;1.50;;;;;;;18.27;69.02;98648.97;5004845;28;20223;-80
2023/07/18 00:20:57;;;;;;;2.10;1.60;;;;;;;18.17;70.01;98653.44;5003929;28;20213;-80
2023/07/18 00:23:23;;;;;;;3.50;1.70;;;;;;;18.11;70.31;98652.59;5004911;28;20235;-80
2023/07/18 00:25:50;;;;;;;2.87;1.40;;;;;;;18.08;69.59;98663.03;5004177;28;20203;-80
2023/07/18 00:28:17;;;;;;;2.67;1.47;;;;;;;18.11;70.28;98660.66;5005077;28;20286;-80
2023/07/18 00:30:43;;;;;;;1.80;1.63;;;;;;;18.11;70.56;98649.91;5004089;28;20208;-80
2023/07/18 00:33:09;;;;;;;2.73;2.13;;;;;;;18.07;71.44;98654.16;5003931;28;20218;-80
2023/07/18 00:35:37;;;;;;;5.77;2.40;;;;;;;18.08;72.39;98658.47;5003516;28;20205;-79
2023/07/18 00:38:03;;;;;;;4.83;2.90;;;;;;;18.07;73.28;98654.16;5003726;28;20290;-79
2023/07/18 00:40:29;;;;;;;3.47;2.77;;;;;;;17.95;76.04;98653.47;5003745;28;20643;-79
2023/07/18 00:42:56;;;;;;;5.87;2.97;;;;;;;18.04;75.96;98654.66;5003119;28;20203;-79
2023/07/18 00:45:22;;;;;;;4.60;2.60;;;;;;;17.95;75.27;98658.84;5003479;28;20214;-79
2023/07/18 00:47:49;;;;;;;3.77;2.80;;;;;;;17.97;77.14;98656.72;5000829;28;20212;-79
2023/07/18 00:50:18;;;;;;;5.20;2.90;;;;;;;18.00;76.01;98650.84;5001967;28;20734;-79
2023/07/18 00:52:48;;;;;;;5.13;3.13;;;;;;;17.88;77.38;98650.19;5002466;28;20636;-79
2023/07/18 00:55:16;;;;;;;5.27;2.90;;;;;;;17.84;77.18;98646.34;5002639;28;20192;-80
2023/07/18 00:57:43;;;;;;;4.47;2.83;;;;;;;17.78;78.26;98641.97;5002794;28;20238;-80
2023/07/18 01:00:12;;;;;;;4.67;3.10;;;;;;;17.77;79.62;98648.41;5001874;28;20234;-80
2023/07/18 01:02:39;;;;;;;4.70;2.83;;;;;;;17.78;78.59;98641.97;5002883;28;20203;-80
2023/07/18 01:05:07;;;;;;;5.60;2.90;;;;;;;17.77;78.88;98645.72;5002980;28;20209;-75
2023/07/18 01:07:35;;;;;;;4.50;2.73;;;;;;;17.84;79.88;98642.84;4994841;28;20619;-75
2023/07/18 01:10:14;;;;;;;7.60;2.93;;;;;;;17.78;80.08;98641.16;4994694;28;20758;-75
2023/07/18 01:12:40;;;;;;;4.60;2.93;;;;;;;17.74;79.36;98638.13;4994790;28;20762;-75
2023/07/18 01:15:08;;;;;;;6.13;2.83;;;;;;;17.62;81.37;98633.97;4994936;28;20250;-75
2023/07/18 01:17:34;;;;;;;3.47;2.90;;;;;;;17.62;81.58;98640.16;4994517;28;20218;-75
2023/07/18 01:20:04;;;;;;;5.60;3.10;;;;;;;17.57;81.97;98634.72;4994752;28;20226;-75
2023/07/18 01:22:31;;;;;;;3.37;2.47;;;;;;;17.58;83.62;98632.81;4994847;28;20550;-75
2023/07/18 01:24:57;;;;;;;5.07;3.30;;;;;;;17.60;83.10;98628.81;4994850;28;20258;-75
2023/07/18 01:27:23;;;;;;;5.80;3.13;;;;;;;17.50;85.16;98631.38;4994830;28;20218;-75
2023/07/18 01:29:51;;;;;;;6.83;3.53;;;;;;;17.51;86.12;98627.63;4994302;28;20229;-75
2023/07/18 01:32:17;;;;;;;5.50;3.53;;;;;;;17.48;85.72;98625.47;4994664;28;20257;-75
2023/07/18 01:34:44;;;;;;;5.27;3.57;;;;;;;17.50;86.04;98627.91;4994676;28;20203;-75
2023/07/18 01:37:10;;;;;;;3.93;3.27;;;;;;;17.40;86.12;98623.19;4994640;28;20207;-75
2023/07/18 01:39:36;;;;;;;6.67;3.40;;;;;;;17.43;87.50;98616.50;4994526;28;20239;-75
2023/07/18 01:42:03;;;;;;;4.73;3.43;;;;;;;17.40;87.55;98617.81;4994178;28;20207;-75
2023/07/18 01:44:29;;;;;;;4.77;3.00;;;;;;;17.40;88.25;98620.50;4994565;28;20301;-75
2023/07/18 01:46:55;;;;;;;3.83;3.00;;;;;;;17.34;87.47;98618.78;4994560;28;20211;-75
2023/07/18 01:49:22;;;;;;;7.40;3.60;;;;;;;17.33;87.16;98624.41;4993955;28;20235;-75
2023/07/18 01:51:48;;;;;;;4.17;3.30;;;;;;;17.30;86.81;98620.34;4994132;28;20670;-75
2023/07/18 01:54:15;;;;;;;5.47;3.10;;;;;;;17.35;87.05;98616.91;4994414;28;20203;-75
2023/07/18 01:56:41;;;;;;;5.83;3.33;;;;;;;17.31;87.52;98624.66;4994303;28;20203;-75
2023/07/18 01:59:07;;;;;;;5.03;3.17;;;;;;;17.23;87.22;98622.38;4994073;28;20226;-75
2023/07/18 02:01:34;;;;;;;4.97;3.17;;;;;;;17.18;87.99;98627.69;4994248;28;20286;-75
2023/07/18 02:04:01;;;;;;;12.47;3.77;;;;;;;17.20;89.57;98630.13;4994294;28;20218;-75
2023/07/18 02:06:27;;;;;;;6.07;3.40;;;;;;;17.15;88.98;98628.16;4994263;28;20211;-75
2023/07/18 02:08:53;;;;;;;6.60;3.50;;;;;;;17.15;89.58;98620.09;4993766;28;20231;-75
2023/07/18 02:11:20;;;;;;;5.17;3.43;;;;;;;17.08;89.09;98614.13;4993953;28;20222;-75
2023/07/18 02:13:46;;;;;;;5.23;3.10;;;;;;;17.10;88.96;98611.97;4994165;28;20238;-75
2023/07/18 02:16:12;;;;;;;5.53;2.73;;;;;;;17.08;89.38;98610.59;4994144;28;20211;-75
2023/07/18 02:18:39;;;;;;;7.67;3.30;;;;;;;17.03;91.80;98621.28;4994042;28;20223;-75
2023/07/18 02:21:05;;;;;;;5.27;3.00;;;;;;;16.96;90.35;98617.97;4994102;28;20211;-75
2023/07/18 02:23:32;;;;;;;4.53;3.10;;;;;;;16.86;92.30;98609.72;4994041;28;20207;-75
2023/07/18 02:25:58;;;;;;;3.87;3.10;;;;;;;16.78;94.35;98604.78;4994071;28;20207;-75
2023/07/18 02:28:25;;;;;;;3.53;2.87;;;;;;;16.83;94.71;98613.72;4993881;28;20234;-75
2023/07/18 02:30:53;;;;;;;5.70;3.33;;;;;;;16.87;93.62;98614.06;4994030;28;20203;-75
2023/07/18 02:33:19;;;;;;;4.43;3.00;;;;;;;16.87;94.54;98603.31;4993973;28;20207;-75
2023/07/18 02:35:50;;;;;;;6.60;3.43;;;;;;;16.82;93.98;98609.41;4993883;28;20209;-75
2023/07/18 02:38:16;;;;;;;5.83;3.57;;;;;;;16.76;94.91;98618.44;4993870;28;20227;-75
2023/07/18 02:40:44;;;;;;;5.60;3.00;;;;;;;16.73;94.55;98608.19;4993578;28;20671;-75
2023/07/18 02:43:10;;;;;;;4.40;2.80;;;;;;;16.70;94.46;98621.31;4993963;28;20217;-75
2023/07/18 02:45:37;;;;;;;6.77;3.40;;;;;;;16.66;96.63;98612.09;4993936;28;20290;-75
2023/07/18 02:48:03;;;;;;;3.80;3.37;;;;;;;16.68;95.92;98607.28;4993989;28;20207;-75
2023/07/18 02:50:29;;;;;;;4.30;3.30;;;;;;;16.53;97.47;98607.88;4993402;28;20235;-75
2023/07/18 02:52:58;;;;;;;4.17;3.50;;;;;;;16.54;96.47;98625.59;4993849;28;20302;-75
2023/07/18 02:55:24;;;;;;;4.90;3.20;;;;;;;16.62;96.41;98614.47;4993786;28;20257;-75
2023/07/18 02:57:53;;;;;;;5.07;2.70;;;;;;;16.55;93.14;98610.31;4993699;28;20261;-75
2023/07/18 03:00:25;;;;;;;5.63;2.73;;;;;;;16.43;95.16;98609.56;4993755;28;20202;-75
2023/07/18 03:02:52;;;;;;;4.80;2.87;;;;;;;16.52;94.99;98621.53;4993773;28;20195;-75
2023/07/18 03:05:21;;;;;;;5.40;2.97;;;;;;;16.51;93.99;98609.19;4993666;28;20318;-75
2023/07/18 03:07:48;;;;;;;5.80;2.30;;;;;;;16.48;92.11;98621.22;4993597;28;20230;-75
2023/07/18 03:10:16;;;;;;;4.47;2.53;;;;;;;16.57;89.49;98611.72;4993492;28;20263;-75
2023/07/18 03:12:42;;;;;;;4.27;2.50;;;;;;;16.53;91.17;98613.25;4996974;28;20207;-75
2023/07/18 03:15:10;;;;;;;3.33;2.27;;;;;;;16.35;92.69;98609.94;4997208;28;20211;-75
2023/07/18 03:17:41;;;;;;;3.73;2.30;;;;;;;16.35;94.03;98620.66;4997237;28;20278;-75
2023/07/18 03:20:16;;;;;;;3.20;2.10;;;;;;;16.40;94.80;98613.56;4996759;28;20242;-75
2023/07/18 03:22:47;;;;;;;4.30;2.40;;;;;;;16.42;92.50;98616.78;4997087;28;20194;-75
2023/07/18 03:25:14;;;;;;;3.00;2.20;;;;;;;16.39;92.73;98611.91;4997112;28;20199;-75
2023/07/18 03:27:40;;;;;;;3.57;2.53;;;;;;;16.39;94.46;98601.16;4997001;28;20213;-75
2023/07/18 03:30:10;;;;;;;5.90;2.80;;;;;;;16.54;90.93;98603.31;4996534;28;20695;-75
2023/07/18 03:32:37;;;;;;;4.37;2.43;;;;;;;16.65;91.87;98600.53;5001596;28;20218;-79
2023/07/18 03:35:04;;;;;;;3.93;2.20;;;;;;;16.48;90.72;98605.09;5005494;28;20262;-79
2023/07/18 03:37:31;;;;;;;3.03;1.93;;;;;;;16.45;89.70;98610.13;5005263;28;20211;-80
2023/07/18 03:39:57;;;;;;;4.00;1.87;;;;;;;16.49;86.05;98595.16;5004605;28;20219;-79
2023/07/18 03:42:23;;;;;;;3.50;1.77;;;;;;;16.48;85.93;98597.06;5005999;28;20212;-80
2023/07/18 03:44:50;;;;;;;2.13;1.70;;;;;;;16.49;87.01;98595.16;5005558;28;20207;-80
2023/07/18 03:47:16;;;;;;;2.47;1.57;;;;;;;16.27;89.94;98597.72;5003574;28;20207;-80
2023/07/18 03:49:42;;;;;;;2.33;1.50;;;;;;;16.22;91.48;98603.00;5003266;28;20231;-80
2023/07/18 03:52:09;;;;;;;2.33;1.73;;;;;;;16.22;91.19;98610.22;5002158;28;20696;-80
2023/07/18 03:54:35;;;;;;;2.80;2.00;;;;;;;16.26;91.34;98608.69;5004523;28;20582;-80
2023/07/18 03:57:02;;;;;;;2.70;1.70;;;;;;;16.11;93.19;98608.44;5003161;28;20230;-80
2023/07/18 03:59:28;;;;;;;2.63;2.07;;;;;;;16.09;97.33;98608.66;5002757;28;20227;-80
2023/07/18 04:01:54;;;;;;;4.43;1.93;;;;;;;16.05;94.58;98609.41;5005609;28;20630;-80
2023/07/18 04:04:21;;;;;;;6.30;1.97;;;;;;;16.09;95.47;98607.84;5003910;28;20207;-80
2023/07/18 04:06:47;;;;;;;5.90;1.90;;;;;;;16.09;95.64;98602.47;5001500;28;20226;-79
2023/07/18 04:09:14;;;;;;;3.93;2.27;;;;;;;16.09;94.45;98594.44;4999454;28;20233;-79
2023/07/18 04:11:41;;;;;;;3.67;2.13;;;;;;;16.07;97.52;98593.88;5002263;28;20207;-80
2023/07/18 04:14:07;;;;;;;2.33;1.93;;;;;;;16.05;99.24;98602.16;5003512;28;20250;-79
2023/07/18 04:16:34;;;;;;;4.57;2.73;;;;;;;16.11;98.79;98603.84;5002575;28;20222;-79
2023/07/18 04:19:00;;;;;;;6.37;2.13;;;;;;;16.14;100.00;98603.38;5001931;28;20223;-79
2023/07/18 04:21:27;;;;;;;3.83;2.37;;;;;;;16.09;100.00;98603.31;5002048;28;20215;-79
2023/07/18 04:23:53;;;;;;;5.43;3.13;;;;;;;16.08;100.00;98601.69;5004492;28;20211;-80
2023/07/18 04:26:20;;;;;;;3.13;2.70;;;;;;;16.20;100.00;98607.00;5004375;28;20207;-80
2023/07/18 04:28:46;;;;;;;5.00;3.10;;;;;;;16.25;100.00;98605.22;5002582;28;20702;-79
2023/07/18 04:31:13;;;;;;;5.63;3.57;;;;;;;16.28;100.00;98604.72;5003199;28;20200;-80
2023/07/18 04:33:40;;;;;;;7.00;4.07;;;;;;;16.38;100.00;98606.78;5004442;28;20207;-80
2023/07/18 04:36:08;;;;;;;5.37;4.17;;;;;;;16.41;100.00;98595.56;5003156;28;20211;-80
2023/07/18 04:38:37;;;;;;;8.70;4.87;;;;;;;16.39;100.00;98590.44;5002990;28;20219;-80
2023/07/18 04:41:04;;;;;;;6.90;4.50;;;;;;;16.50;100.00;98596.78;5004270;28;20290;-80
2023/07/18 04:43:31;;;;;;;10.13;4.57;;;;;;;16.49;100.00;98592.50;5006618;28;20289;-80
2023/07/18 04:45:57;;;;;;;6.23;4.13;;;;;;;16.57;100.00;98581.34;5001028;28;20203;-80
2023/07/18 04:48:24;;;;;;;7.77;4.30;;;;;;;16.59;100.00;98582.72;5002654;28;20230;-80
2023/07/18 04:50:59;;;;;;;5.33;3.67;;;;;;;16.60;100.00;98589.72;5004814;28;20694;-79
2023/07/18 04:53:30;;;;;;;7.57;4.20;;;;;;;16.61;100.00;98585.19;5005337;28;20258;-79
2023/07/18 04:55:56;;;;;;;8.17;4.17;;;;;;;16.67;100.00;98587.69;5005250;28;20218;-80
2023/07/18 04:58:26;;;;;;;7.13;5.07;;;;;;;16.72;100.00;98595.84;5003640;28;20258;-79
2023/07/18 05:00:56;;;;;;;6.33;4.47;;;;;;;16.73;100.00;98592.09;5003855;28;20222;-79
2023/07/18 05:03:24;;;;;;;8.90;4.70;;;;;;;16.82;100.00;98579.88;5004458;28;20211;-79
2023/07/18 05:05:51;;;;;;;8.50;4.73;;;;;;;16.88;100.00;98584.25;5002608;28;20215;-79
2023/07/18 05:08:18;;;;;;;7.47;5.10;;;;;;;17.11;100.00;98578.69;5005346;28;20571;-80
2023/07/18 05:10:44;;;;;;;11.80;5.63;;;;;;;17.46;100.00;98587.25;5003823;28;20227;-80
2023/07/18 05:13:11;;;;;;;11.50;5.97;;;;;;;18.15;95.89;98580.22;5006109;28;20215;-81
2023/07/18 05:15:37;;;;;;;8.47;5.50;;;;;;;18.68;89.43;98578.31;5006482;28;20207;-80
2023/07/18 05:18:04;;;;;;;9.23;5.57;;;;;;;18.95;87.22;98584.44;5006461;28;20298;-80
2023/07/18 05:20:31;;;;;;;10.87;5.53;;;;;;;19.22;84.67;98574.38;5006408;28;20203;-80
2023/07/18 05:22:58;;;;;;;9.47;5.50;;;;;;;18.97;87.34;98573.41;5007684;28;20673;-80
2023/07/18 05:25:24;;;;;;;8.97;5.70;;;;;;;18.83;87.10;98572.22;5003685;28;20610;-80
2023/07/18 05:27:50;;;;;;;9.77;4.90;;;;;;;18.77;89.43;98573.28;5005707;28;20213;-80
2023/07/18 05:30:19;;;;;;;9.43;4.67;;;;;;;18.84;87.62;98568.44;5006206;28;20237;-80
2023/07/18 05:32:46;;;;;;;8.30;4.60;;;;;;;18.96;86.26;98575.25;5006432;28;20207;-80
2023/07/18 05:35:14;;;;;;;6.40;4.90;;;;;;;18.82;86.75;98568.72;5006170;28;20207;-80
2023/07/18 05:37:41;;;;;;;9.83;5.10;;;;;;;18.63;86.57;98567.50;5006063;28;20274;-80
2023/07/18 05:40:09;;;;;;;11.10;5.00;;;;;;;18.53;86.49;98569.28;5007148;28;20223;-80
2023/07/18 05:42:36;;;;;;;6.47;4.73;;;;;;;18.46;87.28;98564.13;5005566;28;20241;-80
2023/07/18 05:45:03;;;;;;;7.33;4.77;;;;;;;18.34;86.29;98562.66;5006760;28;20207;-80
2023/07/18 05:47:30;;;;;;;9.93;4.57;;;;;;;18.41;89.54;98563.28;5005958;28;20265;-80
2023/07/18 05:49:56;;;;;;;8.10;4.40;;;;;;;18.38;86.92;98567.31;5004480;28;20241;-80
2023/07/18 05:52:22;;;;;;;7.77;4.40;;;;;;;18.44;86.41;98562.75;5006811;28;20207;-80
2023/07/18 05:54:49;;;;;;;8.20;4.37;;;;;;;18.47;86.78;98565.75;5006577;28;20214;-79
2023/07/18 05:57:16;;;;;;;7.13;4.50;;;;;;;18.43;89.41;98561.13;5005866;28;20211;-79
2023/07/18 05:59:42;;;;;;;8.83;4.50;;;;;;;18.48;84.75;98553.09;5005152;28;20582;-80
2023/07/18 06:02:09;;;;;;;8.73;4.60;;;;;;;18.57;86.48;98555.06;5005285;28;20225;-80
2023/07/18 06:04:37;;;;;;;8.13;4.13;;;;;;;18.66;85.96;98548.13;5005477;28;20217;-80
2023/07/18 06:07:05;;;;;;;8.83;4.73;;;;;;;18.80;84.76;98545.78;5006235;28;20294;-79
2023/07/18 06:09:31;;;;;;;6.97;4.73;;;;;;;18.75;84.68;98545.75;5004590;28;20227;-79
2023/07/18 06:11:57;;;;;;;6.83;4.40;;;;;;;18.72;84.19;98536.31;5004665;28;20257;-80
2023/07/18 06:14:25;;;;;;;9.17;4.80;;;;;;;18.84;85.11;98533.44;5005321;28;20246;-80
2023/07/18 06:16:51;;;;;;;10.30;4.87;;;;;;;18.96;85.42;98537.53;5004988;28;20277;-80
2023/07/18 06:19:18;;;;;;;5.80;4.30;;;;;;;18.93;82.74;98535.38;5005784;28;20238;-80
2023/07/18 06:21:44;;;;;;;8.17;4.50;;;;;;;18.96;80.93;98532.16;5004311;28;20213;-80
2023/07/18 06:24:10;;;;;;;8.70;4.67;;;;;;;19.05;83.67;98532.50;5003832;28;20203;-80
2023/07/18 06:26:37;;;;;;;7.47;4.47;;;;;;;19.10;81.63;98532.50;5003384;28;20217;-80
2023/07/18 06:29:03;;;;;;;6.13;4.20;;;;;;;19.16;78.79;98534.97;5004818;28;20295;-80
2023/07/18 06:31:30;;;;;;;7.33;3.90;;;;;;;19.38;79.24;98540.22;5003605;28;20239;-80
2023/07/18 06:33:56;;;;;;;5.13;3.87;;;;;;;19.19;75.88;98534.44;5004986;28;20289;-79
2023/07/18 06:36:23;;;;;;;5.20;3.57;;;;;;;19.35;78.85;98524.56;5003777;28;20221;-79
2023/07/18 06:38:50;;;;;;;8.40;4.20;;;;;;;19.37;78.56;98525.91;4992580;28;20231;-75
2023/07/18 06:41:16;;;;;;;6.13;4.33;;;;;;;19.57;78.13;98514.41;4993601;28;20199;-75
2023/07/18 06:43:43;;;;;;;8.57;4.00;;;;;;;19.52;77.31;98526.00;4992531;28;20207;-74
2023/07/18 06:46:09;;;;;;;7.47;2.63;;;;;;;19.67;72.35;98523.34;4992561;28;20214;-74
2023/07/18 06:48:36;;;;;;;5.23;3.20;;;;;;;20.00;72.30;98515.84;4995270;28;20234;-75
2023/07/18 06:51:06;;;;;;;7.57;3.53;;;;;;;19.90;75.43;98518.53;4995258;28;20229;-75
2023/07/18 06:53:32;;;;;;;5.43;3.30;;;;;;;19.94;74.22;98522.31;4995271;28;20198;-75
2023/07/18 06:55:59;;;;;;;5.83;3.50;;;;;;;19.95;73.58;98518.53;4995414;28;20215;-75
2023/07/18 06:58:25;;;;;;;6.13;2.83;;;;;;;20.01;68.75;98525.56;4995618;28;20280;-75
2023/07/18 07:00:52;;;;;;;5.93;2.90;;;;;;;20.01;69.07;98531.78;4997176;28;20199;-74
2023/07/18 07:03:19;;;;;;;6.30;3.37;;;;;;;20.20;65.58;98521.28;4997313;28;20219;-74
2023/07/18 07:05:45;;;;;;;5.67;3.13;;;;;;;20.17;65.82;98508.34;4997863;28;20202;-74
2023/07/18 07:08:13;;;;;;;5.97;3.00;;;;;;;20.20;67.08;98513.19;4997268;28;20223;-74
2023/07/18 07:10:43;;;;;;;4.87;2.60;;;;;;;20.22;65.00;98511.03;4997170;28;20231;-74
2023/07/18 07:13:10;;;;;;;6.60;3.00;;;;;;;20.33;66.03;98507.25;4998336;28;20211;-75
2023/07/18 07:15:37;;;;;;;5.43;3.00;;;;;;;20.41;65.76;98504.03;4997288;28;20203;-74
2023/07/18 07:18:03;;;;;;;7.33;2.93;;;;;;;20.60;68.64;98496.97;4997178;28;20227;-75
2023/07/18 07:20:34;;;;;;;6.53;2.77;;;;;;;20.67;63.54;98494.81;4996773;28;20706;-75
2023/07/18 07:23:01;;;;;;;4.10;2.63;;;;;;;20.64;63.69;98498.06;4996992;28;20213;-74
2023/07/18 07:25:29;;;;;;;3.97;2.70;;;;;;;20.82;63.28;98481.25;4996549;28;20207;-74
2023/07/18 07:27:57;;;;;;;4.87;3.07;;;;;;;21.02;59.96;98486.66;4996724;28;20207;-74
2023/07/18 07:30:24;;;;;;;7.57;2.43;;;;;;;20.85;60.32;98472.63;4996695;28;20227;-74
2023/07/18 07:32:52;;;;;;;5.70;2.97;;;;;;;21.04;61.31;98479.91;4996746;28;20222;-74
2023/07/18 07:35:19;;;;;;;7.20;3.13;;;;;;;21.30;59.09;98476.00;4996687;28;20211;-74
2023/07/18 07:37:47;;;;;;;6.07;2.83;;;;;;;21.14;60.05;98470.91;4996620;28;20294;-74
2023/07/18 07:40:14;;;;;;;4.97;3.07;;;;;;;21.07;63.72;98479.31;4996631;28;20207;-74
2023/07/18 07:42:41;;;;;;;6.00;2.67;;;;;;;21.23;60.59;98470.09;4996411;28;20211;-74
2023/07/18 07:45:08;;;;;;;4.43;2.73;;;;;;;21.40;61.34;98469.72;4996430;28;20207;-75
2023/07/18 07:47:36;;;;;;;3.97;2.33;;;;;;;21.55;58.97;98462.34;4996614;28;20207;-75
2023/07/18 07:50:04;;;;;;;6.10;2.60;;;;;;;21.67;57.39;98462.00;4996228;28;20282;-75
2023/07/18 07:52:30;;;;;;;4.63;2.60;;;;;;;21.61;58.01;98452.31;4996553;28;20215;-75
2023/07/18 07:54:57;;;;;;;4.73;2.77;;;;;;;21.54;58.62;98457.22;4996288;28;20211;-75
2023/07/18 07:57:24;;;;;;;5.57;2.60;;;;;;;21.41;58.82;98455.13;4995969;28;20219;-75
2023/07/18 07:59:51;;;;;;;4.60;3.30;;;;;;;21.31;57.07;98450.59;4996353;28;20238;-75
2023/07/18 08:02:19;;;;;;;2.95;2.40;;;;;;;21.49;58.26;98439.13;4996173;28;20726;-75
2023/07/18 08:04:46;;;;;;;4.70;2.70;;;;;;;21.85;59.61;98440.53;4996345;28;20234;-75
2023/07/18 08:07:13;;;;;;;4.82;2.20;;;;;;;21.83;56.53;98441.88;4996274;28;20208;-75
2023/07/18 08:09:39;;;;;;;6.37;2.60;;;;;;;21.75;57.48;98446.00;4995876;28;20714;-75
2023/07/18 08:12:07;;;;;;;5.80;2.75;;;;;;;21.99;56.40;98435.28;4996221;28;20211;-75
2023/07/18 08:14:37;;;;;;;6.25;2.35;;;;;;;21.93;58.48;98434.50;4996296;28;20218;-75
2023/07/18 08:17:04;;;;;;;4.43;2.35;;;;;;;21.98;56.09;98430.97;4995626;28;20207;-75
2023/07/18 08:19:32;;;;;;;6.70;2.72;;;;;;;22.05;56.75;98432.25;4995386;28;20242;-75
2023/07/18 08:21:58;;;;;;;3.95;2.47;;;;;;;22.05;55.03;98432.25;4995908;28;20265;-75
2023/07/18 08:24:25;;;;;;;3.60;2.20;;;;;;;22.25;53.56;98425.88;4995932;28;20203;-75
2023/07/18 08:26:51;;;;;;;4.53;2.40;;;;;;;22.50;55.17;98425.63;4996501;28;20214;-75
2023/07/18 08:29:17;;;;;;;4.68;2.38;;;;;;;22.42;54.27;98420.81;4995415;28;20710;-75
2023/07/18 08:31:44;;;;;;;4.53;2.58;;;;;;;22.64;54.13;98416.56;4995805;28;20238;-74
2023/07/18 08:34:10;;;;;;;3.55;2.05;;;;;;;22.65;53.86;98407.31;4995846;28;20207;-75
2023/07/18 08:36:36;;;;;;;4.57;2.00;;;;;;;22.92;52.92;98414.91;4995292;28;20211;-75
2023/07/18 08:39:03;;;;;;;4.97;2.15;;;;;;;22.68;51.17;98405.94;4995257;28;20237;-74
2023/07/18 08:41:30;;;;;;;3.30;1.92;;;;;;;22.74;51.27;98410.22;4995642;28;20207;-75
2023/07/18 08:43:59;;;;;;;6.18;2.17;;;;;;;23.13;49.35;98402.69;4995579;28;20203;-75
2023/07/18 08:46:26;;;;;;;4.53;2.33;;;;;;;22.63;49.67;98392.44;4995526;28;20548;-75
2023/07/18 08:48:54;;;;;;;4.75;2.08;;;;;;;22.54;51.12;98388.75;4995042;28;20231;-75
2023/07/18 08:51:21;;;;;;;5.45;2.30;;;;;;;22.60;51.32;98393.81;4995018;28;20301;-75
2023/07/18 08:53:48;;;;;;;6.28;2.65;;;;;;;22.93;52.20;98394.81;4995007;28;20246;-75
2023/07/18 08:56:14;;;;;;;4.07;2.10;;;;;;;23.17;51.17;98396.41;4994860;28;20218;-75
2023/07/18 08:58:40;;;;;;;3.42;1.90;;;;;;;23.23;51.50;98402.56;4994879;28;20237;-75
2023/07/18 09:01:08;;;;;;;4.03;2.17;;;;;;;23.33;50.02;98397.03;4995788;28;20210;-74
2023/07/18 09:03:35;;;;;;;4.88;2.20;;;;;;;23.31;48.18;98382.94;4994824;28;20725;-75
2023/07/18 09:06:03;;;;;;;4.30;2.35;;;;;;;23.23;50.92;98383.59;4995196;28;20207;-75
2023/07/18 09:08:41;;;;;;;4.97;2.30;;;;;;;23.24;49.41;98382.50;4994206;28;20227;-74
2023/07/18 09:11:07;;;;;;;3.55;2.35;;;;;;;23.24;50.85;98372.44;4994890;28;20678;-75
2023/07/18 09:13:41;;;;;;;2.70;2.00;;;;;;;23.81;49.55;98376.75;4995038;28;20243;-75
2023/07/18 09:16:23;;;;;;;3.03;2.00;;;;;;;23.80;48.66;98377.84;4994664;28;20566;-75
2023/07/18 09:18:54;;;;;;;3.22;2.10;;;;;;;24.05;46.83;98378.28;4995324;28;20239;-75
2023/07/18 09:21:22;;;;;;;9.52;2.40;;;;;;;24.11;45.67;98370.84;4994931;28;20234;-75
2023/07/18 09:23:49;;;;;;;4.30;2.33;;;;;;;24.09;46.32;98367.59;4994377;28;20210;-75
2023/07/18 09:26:17;;;;;;;4.07;2.20;;;;;;;24.34;47.91;98361.75;4995184;28;20207;-75
2023/07/18 09:28:43;;;;;;;5.25;2.40;;;;;;;24.09;47.37;98360.28;4994422;28;20227;-75
2023/07/18 09:31:20;;;;;;;4.18;2.53;;;;;;;24.50;49.56;98357.63;4994624;28;20223;-75
2023/07/18 09:33:48;;;;;;;4.55;2.28;;;;;;;24.35;47.21;98358.72;4994780;28;20191;-74
2023/07/18 09:36:19;;;;;;;2.95;2.40;;;;;;;24.23;46.89;98352.97;4994523;28;20207;-75
2023/07/18 09:38:47;;;;;;;4.22;2.75;;;;;;;24.37;48.37;98355.72;4994062;28;20234;-75
2023/07/18 09:41:18;;;;;;;4.88;2.92;;;;;;;24.01;47.42;98347.38;4994604;28;20258;-75
2023/07/18 09:43:45;;;;;;;5.20;2.40;;;;;;;24.17;46.82;98354.16;4994450;28;20207;-75
2023/07/18 09:46:16;;;;;;;4.55;2.53;;;;;;;24.29;46.75;98351.75;4994794;28;20207;-76
2023/07/18 09:48:45;;;;;;;4.85;2.60;;;;;;;24.87;46.06;98344.66;4993942;28;20235;-75
2023/07/18 09:51:14;;;;;;;4.15;2.50;;;;;;;25.11;45.49;98358.03;4993774;28;20589;-75
2023/07/18 09:53:46;;;;;;;3.67;2.70;;;;;;;24.67;47.64;98363.31;4994271;28;20213;-75
2023/07/18 09:56:15;;;;;;;4.43;2.33;;;;;;;24.75;45.90;98368.03;4993984;28;20196;-75
2023/07/18 09:58:44;;;;;;;6.78;2.72;;;;;;;24.97;46.99;98374.34;4994146;28;20233;-75
2023/07/18 10:01:19;;;;;;;4.32;2.40;;;;;;;25.00;47.24;98395.53;4994058;28;20694;-76
2023/07/18 10:03:47;;;;;;;4.95;2.70;;;;;;;25.01;44.84;98413.47;4994111;28;20195;-76
2023/07/18 10:06:15;;;;;;;3.58;2.53;;;;;;;25.05;47.12;98433.50;4993930;28;20662;-75
2023/07/18 10:08:44;;;;;;;4.90;2.90;;;;;;;24.81;47.04;98441.06;4994245;28;20227;-75
2023/07/18 10:11:11;;;;;;;5.72;2.58;;;;;;;24.61;47.05;98440.66;4994413;28;20246;-75
2023/07/18 10:13:42;;;;;;;3.35;2.38;;;;;;;24.94;47.22;98423.94;4994071;28;20301;-75
2023/07/18 10:16:14;;;;;;;4.90;2.53;;;;;;;24.92;46.50;98414.47;4993632;28;20493;-75
2023/07/18 10:18:48;;;;;;;7.70;2.80;;;;;;;24.79;49.78;98404.41;4993570;28;20248;-75
2023/07/18 10:21:34;;;;;;;4.22;2.50;;;;;;;24.60;50.34;98385.44;4993928;28;20202;-75
2023/07/18 10:24:33;;;;;;;5.47;2.60;;;;;;;24.43;50.18;98335.47;4993970;28;20213;-75
2023/07/18 10:27:07;;;;;;;4.75;2.80;;;;;;;24.33;50.32;98324.81;4971435;28;20207;-75
2023/07/18 10:29:39;;;;;;;6.07;2.75;;;;;;;24.42;50.64;98317.56;4993614;28;20227;-75
2023/07/18 10:32:06;;;;;;;3.28;2.80;;;;;;;24.34;50.31;98283.72;4993981;28;20215;-75
2023/07/18 10:34:38;;;;;;;3.58;2.67;;;;;;;24.54;49.57;98201.78;4993885;28;20203;-75
2023/07/18 10:37:08;;;;;;;3.72;2.63;;;;;;;24.29;48.87;98087.38;4993774;28;20203;-75
2023/07/18 10:39:43;;;;;;;7.13;3.40;;;;;;;24.39;48.59;97959.44;4993404;28;20722;-75
2023/07/18 10:42:17;;;;;;;6.18;3.05;;;;;;;24.31;48.61;97996.31;4993793;28;20318;-75
2023/07/18 10:44:43;;;;;;;7.30;3.00;;;;;;;24.44;48.62;98106.88;4994227;28;20190;-75
2023/07/18 10:47:14;;;;;;;3.38;2.50;;;;;;;24.81;47.65;98195.47;4993506;28;20207;-75
2023/07/18 10:49:42;;;;;;;5.32;2.92;;;;;;;24.68;48.23;98228.94;4993523;28;20239;-75
2023/07/18 10:52:08;;;;;;;4.18;2.95;;;;;;;24.76;47.63;98214.63;4993633;28;20270;-75
2023/07/18 10:54:36;;;;;;;4.63;2.88;;;;;;;24.84;49.00;98224.78;4993750;28;20574;-75
2023/07/18 10:57:04;;;;;;;3.67;2.80;;;;;;;24.65;47.47;98254.84;4993551;28;20218;-75
2023/07/18 10:59:30;;;;;;;3.53;2.70;;;;;;;24.66;47.99;98291.81;4993416;28;20231;-76
2023/07/18 11:02:00;;;;;;;5.57;2.80;;;;;;;24.67;46.14;98311.63;4993852;28;20199;-75
2023/07/18 11:04:28;;;;;;;4.72;2.88;;;;;;;25.02;47.67;98319.06;4991877;28;20214;-75
2023/07/18 11:06:55;;;;;;;3.78;2.95;;;;;;;25.25;47.62;98350.66;4993216;28;20688;-75
2023/07/18 11:09:22;;;;;;;6.13;2.88;;;;;;;25.22;47.18;98383.91;4993393;28;20238;-75
2023/07/18 11:11:49;;;;;;;3.70;3.00;;;;;;;25.12;48.42;98405.91;4993362;28;20223;-75
2023/07/18 11:14:16;;;;;;;5.78;3.10;;;;;;;24.85;46.70;98381.44;4992946;28;20761;-75
2023/07/18 11:16:43;;;;;;;4.65;2.85;;;;;;;24.70;49.75;98373.59;4994107;28;20217;-75
2023/07/18 11:19:09;;;;;;;4.05;2.95;;;;;;;24.58;50.33;98382.22;4993508;28;20315;-75
2023/07/18 11:21:36;;;;;;;6.35;3.03;;;;;;;24.46;48.08;98372.94;4993571;28;20203;-75
2023/07/18 11:24:03;;;;;;;4.63;2.97;;;;;;;24.40;48.54;98380.38;4993440;28;20251;-75
2023/07/18 11:26:30;;;;;;;4.78;3.17;;;;;;;24.24;52.46;98379.03;4993455;28;20207;-75
2023/07/18 11:28:57;;;;;;;7.65;3.08;;;;;;;24.26;51.69;98378.72;4993201;28;20231;-75
2023/07/18 11:31:28;;;;;;;4.35;3.13;;;;;;;24.28;51.91;98390.13;4993087;28;20231;-75
2023/07/18 11:33:57;;;;;;;4.65;3.00;;;;;;;24.23;53.33;98354.84;4996578;28;20762;-75